NOTICE: In January 2020, USGS WaterWatch began operating in maintenance-only mode. Existing tools, features, and web data services are being fully maintained as before, but new tools and enhancements will no longer be developed. Please contact USGS WaterWatch if you have any questions.
Choose a state:
Most recent flow and stage for Kansas
(Stations highlighted in red are currently above flood stage)
USGS
station
ID
USGS station name NWS
flood
stage
(ft)
Most recent
stage
(ft)
Most recent
flow
(cfs)
Historical
peaks
(cfs)
Most recent
local
date/time
NWS
station
ID
06814000 TURKEY C NR SENECA, KS 21 8.70 1,360 21,400 2020-05-26 07:45:00 SNCK1
06818300 MISSOURI R AT ATCHISON, KS 22 19.43

 

2020-05-26 07:45:00 ATCK1
06820475 MISSOURI R AT LEAVENWORTH, KS 20 14.87

 

2020-05-26 07:00:00 LEVK1
06827000 SF REPUBLICAN R NR CO-KS ST LINE, KS   3.79 14.1 3,200 2020-05-26 07:45:00  
06845110 SAPPA C NR LYLE, KS 17 6.67 19.6 994 2020-05-26 07:00:00 NCRK1
06846500 BEAVER C AT CEDAR BLUFFS, KS 16 2.99 0.00 7,940 2020-05-26 07:00:00 CDBK1
06847900 PRAIRIE DOG C AB KEITH SEBELIUS LAKE, KS 11 4.35 38.0 65,500 2020-05-26 06:45:00 CLNK1
06848500 PRAIRIE DOG C NR WOODRUFF, KS 19 3.95 32.4 15,000 2020-05-26 07:30:00 WDRK1
06853500 REPUBLICAN R NR HARDY, NE 11 5.76 1,360 225,000 2020-05-26 07:30:00 HDYN1
06853800 WHITE ROCK C NR BURR OAK, KS 15 2.79 25.0 15,800 2020-05-26 07:45:00 BURK1
06854000 WHITE ROCK C AT LOVEWELL, KS 13 0.06

 

23,300 2020-05-26 07:45:00 LWLK1
06854500 REPUBLICAN R AT SCANDIA, KS 10 3.70 1,250 215,000 2020-05-26 07:15:00 SNDK1
06855850 BUFFALO C 4 MI E OF JAMESTOWN, KS   5.09 111 2,470 2020-05-26 07:15:00  
06856000 REPUBLICAN R AT CONCORDIA, KS 15 7.51 1,400 207,000 2020-05-26 07:30:00 CNKK1
06856600 REPUBLICAN R AT CLAY CENTER, KS 15 11.86 2,930 195,000 2020-05-26 07:30:00 CYCK1
06857050 MILFORD LK NR JUNCTION CITY, KS   1145.43

 

  2020-05-26 07:30:00 MLFK1
06857100 REPUBLICAN R AT JUNCTION CITY, KS   8.03 Bkw 33,700 2020-05-26 07:30:00  
06860000 SMOKY HILL R AT ELKADER, KS 9 4.29 0.78 71,000 2020-05-26 07:30:00 OKYK1
06860900 HACKBERRY C NR TREGO CENTER, KS   7.67 4.22 60.4 2020-05-26 07:30:00  
06861000 SMOKY HILL R NR ARNOLD, KS 7 0.60 17.4 87,000 2020-05-26 07:30:00 ARNK1
06861500 CEDAR BLUFF RE NR ELLIS, KS   2134.69

 

  2020-05-26 07:15:00 ELSK1
06862700 SMOKY HILL R NR SCHOENCHEN, KS   3.38 14.0 20,400 2020-05-26 07:30:00 SCNK1
06862850 SMOKY HILL R BL SCHOENCHEN, KS 11 2.77 15.9 20,500 2020-05-26 07:00:00 SCSK1
06863000 SMOKY HILL R AT PFEIFER, KS   1.77 27.1 30,000 2020-05-26 07:00:00 PFRK1
06863420 BIG C NR ELLIS, KS   1.71 9.54 750 2020-05-26 07:15:00 RIGK1
06863500 BIG C NR HAYS, KS 26 6.08 58.3 22,400 2020-05-26 07:30:00 HYSK1
06864000 SMOKY HILL R NR RUSSELL, KS 18 5.94 385 70,000 2020-05-26 07:30:00 RSLK1
06864500 SMOKY HILL R AT ELLSWORTH, KS 20 6.60 1,540 61,000 2020-05-26 07:30:00 ELWK1
06865000 KANOPOLIS LK NR KANOPOLIS, KS   1466.23

 

  2020-05-26 07:00:00 KANK1
06865500 SMOKY HILL R NR LANGLEY, KS   3.80 120 45,000 2020-05-26 07:30:00  
06866000 SMOKY HILL R AT LINDSBORG, KS 21 11.76 1,030 32,000 2020-05-26 07:30:00 LNSK1
06866500 SMOKY HILL R NR MENTOR, KS 20 11.26 1,510 32,000 2020-05-26 07:45:00 MTRK1
06866900 SALINE R NR WAKEENEY, KS 13 2.90 19.4 13,000 2020-05-26 07:00:00 WAAK1
06867000 SALINE R NR RUSSELL, KS 18 6.23 183 41,500 2020-05-26 07:30:00 RUSK1
06867500 PARADISE C NR PARADISE, KS   8.73 31.9 14,800 2020-05-26 07:30:00  
06868100 WILSON LK NR WILSON, KS   1515.88

 

  2020-05-26 07:30:00 WLSK1
06868200 SALINE R AT WILSON DAM, KS   2.92 15.2 3,320 2020-05-26 07:45:00  
06868850 SALINE R AT LINCOLN, KS 30 17.43 728 2,430 2020-05-26 07:45:00 LINK1
06869500 SALINE R AT TESCOTT, KS 25 21.06 2,340 61,400 2020-05-26 07:30:00 TSCK1
06869950 MULBERRY C NR SALINA, KS 24 16.29 2,070 29,900 2020-05-26 07:30:00 SLNK1
06870200 SMOKY HILL R AT NEW CAMBRIA, KS 27 24.45

 

26,400 2020-05-26 07:45:00 NCMK1
06870300 GYPSUM C NR GYPSUM, KS   24.79 391 11,400 2020-05-26 07:15:00  
06871000 NF SOLOMON R AT GLADE, KS 11 5.21 206 23,300 2020-05-26 07:30:00 GDEK1
06871500 BOW C NR STOCKTON, KS 9 5.05 33.0 12,900 2020-05-26 07:45:00 SKTK1
06872500 NF SOLOMON R AT PORTIS, KS 15 5.08 143 35,700 2020-05-26 07:30:00 PTIK1
06873000 SF SOLOMON R AB WEBSTER RE, KS 8.5 3.51 125 55,200 2020-05-26 07:15:00 DMRK1
06873460 SF SOLOMON R AT WOODSTON, KS 12 5.80 129 8,710 2020-05-26 07:30:00 WODK1
06874000 SF SOLOMON R AT OSBORNE, KS 14 5.84 194 81,200 2020-05-26 07:30:00 OSBK1
06875900 SOLOMON R NR GLEN ELDER, KS 21 8.08 71.9 9,410 2020-05-26 07:30:00 GELK1
06876000 SOLOMON R AT BELOIT, KS 20 3.90 101 125,000 2020-05-26 07:45:00 BLTK1
06876070 SOLOMON R NR SIMPSON, KS   9.86

 

14,700 2020-05-26 07:15:00  
06876440 SOLOMON R NR MINNEAPOLIS, KS 26 6.35 741 9,770 2020-05-26 07:15:00 MPSK1
06876700 SALT C NR ADA, KS 18 4.94 51.5 16,000 2020-05-26 07:45:00 ADAK1
06876900 SOLOMON R AT NILES, KS 24 19.22 3,750 178,000 2020-05-26 07:30:00 NLSK1
06877600 SMOKY HILL R AT ENTERPRISE, KS 26 21.86 10,900 233,000 2020-05-26 07:45:00 ENTK1
06878000 CHAPMAN C NR CHAPMAN, KS 19 13.14 1,240 46,700 2020-05-26 07:45:00 CHPK1
06878600 LYON C NR JUNCTION CITY, KS 21 10.87 975 5,960 2020-05-26 07:15:00 JNCK1
06879100 KANSAS R AT FORT RILEY, KS 21 13.45 15,000 87,600 2020-05-26 07:30:00 FTRK1
06879650 KINGS C NR MANHATTAN, KS   5.19 73.1 10,200 2020-05-26 07:45:00  
06879805 WILDCAT C AT KEATS, KS 17 9.67

 

  2020-05-26 07:00:00 WKCK1
06879810 WILDCAT C AT SCENIC DRIVE, MANHATTAN, KS 14 4.50 148 3,920 2020-05-26 07:15:00 MWCK1
06879815 WILDCAT C AT SETH CHILDS RD, MANHATTAN, KS   4.67

 

8,600 2020-05-26 07:30:00  
06879820 KANSAS R AT MANHATTAN, KS 18 14.45

 

  2020-05-26 07:00:00 MHKK1
06882510 BIG BLUE R AT MARYSVILLE, KS 35 23.32 9,110 55,600 2020-05-26 07:30:00 MRYK1
06884025 Little Blue River at Hollenberg, KS 19 7.54 4,430 59,200 2020-05-26 07:00:00 HBGK1
06884200 MILL C AT WASHINGTON, KS 18 8.77 1,070 14,600 2020-05-26 06:45:00 WSHK1
06884400 L BLUE R NR BARNES, KS 16 11.55 6,510 56,000 2020-05-26 07:30:00 BANK1
06884700 BIG BLUE R AT BLUE RAPIDS, KS 26.11 28.18

 

  2020-05-26 07:15:00 BLRK1
06885500 BLACK VERMILLION R NR FRANKFORT, KS 19 13.23 2,360 38,300 2020-05-26 07:30:00 FKFK1
06886500 FANCY C AT WINKLER, KS 16 2.33 280 24,000 2020-05-26 07:15:00 RDPK1
06886850 MILL C NR RILEY, KS   7.10 Rat   2020-05-26 07:45:00  
06886900 TUTTLE C LK NR MANHATTAN, KS 1136 1080.20

 

  2020-05-26 07:30:00 MTTK1
06887000 BIG BLUE R NR MANHATTAN, KS 19 5.92 Bkw 93,400 2020-05-26 07:00:00 MNTK1
06887500 KANSAS R AT WAMEGO, KS 19 10.59 18,800 400,000 2020-05-26 07:30:00 WMGK1
06888000 VERMILLION C NR WAMEGO, KS   7.53 978 38,500 2020-05-26 07:45:00  
06888300 ROCK C NR LOUISVILLE, KS 27 13.47 1,960 20,000 2020-05-26 07:00:00 LISK1
06888350 KANSAS R NR BELVUE, KS 20 12.88 23,100 170,000 2020-05-26 07:30:00 BVUK1
06888500 MILL C NR PAXICO, KS 21 6.89 1,510 77,200 2020-05-26 06:45:00 PXCK1
06888700 CROSS C AT ROSSVILLE, KS 25 13.41

 

  2020-05-26 07:30:00 RSSK1
06888990 KANSAS R AT TOPEKA WATER PLANT, KS   13.27 32,400   2020-05-26 07:30:00  
06889000 KANSAS R AT TOPEKA, KS 26 16.62 32,800 469,000 2020-05-26 07:30:00 TPAK1
06889200 SOLDIER C NR DELIA, KS 26 13.71 1,100 59,600 2020-05-26 07:30:00 DELK1
06889500 SOLDIER C NR TOPEKA, KS 29 5.24 1,430 47,800 2020-05-26 07:00:00 TOPK1
06889585 SHUNGANUNGA C AT GAGE BLVD, TOPEKA, KS 15 6.19

 

  2020-05-26 07:15:00 SGBK1
06889630 SHUNGANUNGA C AT TOPEKA, KS 24 6.29 230 6,510 2020-05-26 07:15:00 TSHK1
06890100 DELAWARE R NR MUSCOTAH, KS 27 8.77 1,820 35,600 2020-05-26 07:45:00 MSCK1
06890898 PERRY LK NR PERRY, KS   891.83

 

  2020-05-26 07:30:00 PRRK1
06890900 DELAWARE R AT PERRY, KS   35.49 140 14,000 2020-05-26 07:30:00  
06891000 KANSAS R AT LECOMPTON, KS 17 10.83 29,600 483,000 2020-05-26 07:30:00 LCPK1
06891080 KANSAS R AT LAWRENCE, KS 18 14.25 13,000 92,600 2020-05-26 07:50:00 LWRK1
06891200 WAKARUSA R AT WAKARUSA, KS 15 4.50

 

  2020-05-26 07:15:00 WRWK1
06891260 WAKARUSA R NR RICHLAND, KS   5.98 445 18,600 2020-05-26 07:30:00 RCHK1
06891478 CLINTON LK NR LAWRENCE, KS   875.87

 

  2020-05-26 07:00:00 CLIK1
06891500 WAKARUSA R NR LAWRENCE, KS 23 5.40 119 24,200 2020-05-26 07:45:00 LAWK1
06891850 STRANGER C AT EASTON, KS 17 19.27 4,800 10,200 2020-05-26 07:30:00 ESTK1
06892000 STRANGER C NR TONGANOXIE, KS 23 16.78 3,710 40,000 2020-05-26 07:30:00 TNGK1
06892350 KANSAS R AT DESOTO, KS 26 10.10 16,100 170,000 2020-05-26 07:45:00 DSOK1
06892360 KILL C AT 95TH ST NR DESOTO, KS   15.33 3,270 8,460 2020-05-26 07:30:00  
06892493 CEDAR C AT 95TH ST NR DESOTO, KS   78.31

 

  2020-05-26 07:30:00  
06892494 CAMP C AT 95TH ST NR DESOTO, KS   4.25

 

  2020-05-26 07:00:00  
06892495 CEDAR C NR DESOTO, KS   59.15 550 7,840 2020-05-26 07:45:00  
06892513 MILL C AT JOHNSON DRIVE, SHAWNEE, KS   51.88 958 11,900 2020-05-26 07:30:00  
06892518 KANSAS R NR LAKE QUIVIRA, KS   11.86 10,700 109,000 2020-05-26 07:45:00  
06892950 KANSAS R AT KANSAS CITY, KS 32.90 21.13

 

  2020-05-26 07:45:00 KCKK1
06893080 BLUE R NR STANLEY, KS 16 7.41 593 20,200 2020-05-26 07:45:00 STAK1
06893100 BLUE R AT KENNETH RD, OVERLAND PARK, KS   6.23 279 12,400 2020-05-26 07:45:00  
06893300 INDIAN C AT OVERLAND PARK, KS 14 8.19 706 14,400 2020-05-26 07:15:00 OPDK1
06893350 TOMAHAWK C NR OVERLAND PARK, KS   3.76 230 9,140 2020-05-26 07:15:00  
06893390 INDIAN C AT STATE LINE RD, LEAWOOD, KS 20 14.06 1,470 23,600 2020-05-26 07:30:00 ICLK1
06910800 MARAIS DES CYGNES R NR READING, KS 19 4.53 416 67,400 2020-05-26 07:45:00 RDNK1
06910997 MELVERN LK NR MELVERN, KS   1037.62

 

  2020-05-26 07:30:00 MLVK1
06911000 MARAIS DES CYGNES R AT MELVERN, KS   2.47 44.9 68,500 2020-05-26 07:45:00  
06911490 SALT C AT LYNDON, KS 10 1.62 276 16,400 2020-05-26 07:30:00 LNDK1
06911900 DRAGOON C NR BURLINGAME, KS 19 8.31 71.1 25,000 2020-05-26 07:00:00 BRGK1
06912490 POMONA LK NR QUENEMO, KS   974.63

 

  2020-05-26 07:45:00 PLKK1
06912500 HUNDRED AND TEN MILE C NR QUENEMO, KS   3.13 48.4 38,600 2020-05-26 06:45:00  
06913000 MARAIS DES CYGNES R NR POMONA, KS 20 7.45 1,890 69,400 2020-05-26 07:30:00 PMNK1
06913500 MARAIS DES CYGNES R NR OTTAWA, KS 31 10.58 2,040 142,000 2020-05-26 07:30:00 OTWK1
06914000 POTTAWATOMIE C NR GARNETT, KS 26 5.02 221 57,000 2020-05-26 07:45:00 GRTK1
06914500 POTTAWATOMIE C AT LANE, KS 23 6.44 279 75,000 2020-05-26 07:30:00 LNEK1
06914950 BIG BULL C NR EDGERTON, KS   7.27 1,000 8,320 2020-05-26 07:00:00  
06914990 L BULL C NR SPRING HILL, KS   4.81 191 3,130 2020-05-26 07:30:00  
06914995 HILLSDALE LK NR HILLSDALE, KS   917.64

 

  2020-05-26 07:30:00 HILK1
06915000 BIG BULL C NR HILLSDALE, KS   2.28 31.2 45,200 2020-05-26 07:30:00  
06915800 MARAIS DES CYGNES R AT LA CYGNE, KS 25 9.95 3,510 131,000 2020-05-26 07:15:00 LCGK1
06916600 MARAIS DES CYGNES R NR KS-MO ST LINE, KS 27 12.14 4,830 137,000 2020-05-26 07:45:00 TPOK1
06917000 L OSAGE R AT FULTON, KS 22 12.61 2,290 62,800 2020-05-26 07:45:00 FTNK1
06917240 MARMATON R NR UNIONTOWN, KS   4.23 650 16,900 2020-05-26 07:00:00 UUUK1
06917500 MARMATON R NR FORT SCOTT, KS 38 24.11 2,940 38,100 2020-05-26 07:30:00 FSKK1
07137000 FRONTIER DITCH NR COOLIDGE, KS   8.95 0.00   2020-05-26 07:45:00  
07137010 FRONTIER DITCH RETURN NR COOLIDGE, KS   1.99 0.00   2020-05-26 07:45:00  
07137500 ARKANSAS R NR COOLIDGE, KS 8 2.89 102 158,000 2020-05-26 07:15:00 COOK1
07138000 ARKANSAS R AT SYRACUSE, KS 10 4.28 89.3 174,000 2020-05-26 07:15:00 SYRK1
07138020 ARKANSAS R AT KENDALL, KS   5.95 94.4 1,320 2020-05-26 07:45:00 KENK1
07138050 AMAZON GREAT EASTERN DITCH NR LAKIN, KS   2.61 Eqp   2020-05-26 07:00:00  
07138063 SOUTHSIDE DITCH NR LAKIN, KS   1.44

 

  2020-05-26 07:00:00  
07138064 SOUTHSIDE DITCH RETURN NR DEERFIELD, KS   1.99 0.00   2020-05-26 07:00:00  
07138070 ARKANSAS R AT DEERFIELD, KS 14 7.00 42.8 2,740 2020-05-26 07:45:00 DRFK1
07138075 FARMERS DITCH NR DEERFIELD, KS   2.77 29.0   2020-05-26 07:00:00  
07139000 ARKANSAS R AT GARDEN CITY, KS 10 5.24 0.08 130,000 2020-05-22 01:00:00 GCKK1
07139500 ARKANSAS R AT DODGE CITY, KS 11 6.00

 

82,000 2020-05-26 07:00:00 DDCK1
07140850 PAWNEE R NR BURDETT, KS 30 2.68 1.59 4,290 2020-05-26 07:00:00 BTTK1
07140880 BUCKNER C AB HORSETHIEF RE NR JETMORE, KS   4.41 Bkw 2,720 2020-05-26 07:15:00 HTAK1
07140885 HORSETHIEF RE NR JETMORE, KS   2421.32

 

  2020-05-26 07:45:00 HTRK1
07140890 BUCKNER C BL HORSETHIEF RE NR JETMORE, KS   3.13 3.67 454 2020-05-26 07:45:00 HTBK1
07140900 BUCKNER C NR JETMORE, KS   3.91 17.5 640 2020-05-26 07:15:00 JTRK1
07141000 BUCKNER C AT HANSTON, KS   4.05 5.61 535 2020-05-26 07:45:00 HSNK1
07141200 PAWNEE R AT ROZEL, KS 31 9.67 48.9 16,300 2020-05-26 07:30:00 ROZK1
07141220 ARKANSAS R NR LARNED, KS   5.98 197 4,840 2020-05-26 07:00:00 LRDK1
07141300 ARKANSAS R AT GREAT BEND, KS 12 1.47 47.8 27,800 2020-05-26 07:30:00 GTBK1
07141780 WALNUT C AT NEKOMA, KS 29 7.63 12.0 5,790 2020-05-26 07:15:00 RCNK1
07141900 WALNUT C AT ALBERT, KS 24 6.18 78.8 12,700 2020-05-26 06:45:00 ALBK1
07142019 CHEYENNE BOTTOMS DV NR GREAT BEND, KS   2.74 53.5 449 2020-05-26 07:00:00  
07142300 RATTLESNAKE C NR MACKSVILLE, KS 9 4.14 21.0 17,700 2020-05-26 07:00:00 MACK1
07142575 RATTLESNAKE C NR ZENITH, KS 17 12.96 55.8 29,300 2020-05-26 07:45:00 ZENK1
07142680 ARKANSAS R NR NICKERSON, KS   10.30 269 7,090 2020-05-26 07:00:00  
07143300 COW C NR LYONS, KS 18 15.35 1,270 28,000 2020-05-26 07:30:00 LYNK1
07143310 COW C NR HUTCHINSON, KS 9.5 6.89

 

  2020-05-26 07:15:00 HTCK1
07143330 ARKANSAS R NR HUTCHINSON, KS 10 2.79 357 24,700 2020-05-26 07:30:00 HAVK1
07143375 ARKANSAS R NR MAIZE, KS   5.68 440 45,900 2020-05-26 07:15:00  
07143665 L ARKANSAS R AT ALTA MILLS, KS 22 11.02 1,610 30,100 2020-05-26 07:15:00 ALMK1
07143672 L ARKANSAS R AT HWY 50 NR HALSTEAD, KS 25 12.11 1,220 11,000 2020-05-26 07:30:00 HTDK1
07144050 EMMA C AT SEDGWICK, KS 19 1.12 192 7,310 2020-05-26 07:15:00 SEMK1
07144100 L ARKANSAS R NR SEDGWICK, KS 22 5.89 441 17,600 2020-05-26 07:15:00 SEDK1
07144200 L ARKANSAS R AT VALLEY CENTER, KS   4.03 585 32,000 2020-05-26 07:00:00  
07144201 FLOODWAY AT L ARKANSAS R AT VALLEY CENTER, KS   2.58 0.00   2020-05-26 07:00:00  
07144300 ARKANSAS R AT WICHITA, KS   4.99 1,250 48,400 2020-05-26 07:45:00  
07144301 FLOODWAY AT ARKANSAS R AT WICHITA, KS   6.50 0.00   2020-05-26 07:45:00  
07144470 COWSKIN C AT 29TH ST NORTH OF WICHITA, KS   11.04

 

1,400 2020-05-26 07:00:00  
07144480 COWSKIN C AT 119TH ST AT WICHITA, KS 18 7.78 19.9 5,870 2020-05-26 07:30:00 COWK1
07144486 CALFSKIN C AT 119TH ST, WICHITA, KS   5.61 5.73 5,700 2020-05-26 07:00:00  
07144490 COWSKIN C AT KELLOGG ST, WICHITA, KS   7.82 31.5 4,970 2020-05-26 07:15:00  
07144550 ARKANSAS R AT DERBY, KS 12 2.99 1,820 58,300 2020-05-26 07:00:00 DRBK1
07144570 ARKANSAS R AT MULVANE, KS 16.5 7.71 2,180 28,200 2020-05-26 07:15:00 MULK1
07144780 NF NINNESCAH R AB CHENEY RE, KS   6.57 125 87,000 2020-05-26 07:30:00  
07144790 CHENEY RE NR CHENEY, KS   1422.09

 

  2020-05-26 07:00:00 CHNK1
07144910 SF NINNESCAH R NR PRATT, KS 9 2.79 13.9 26,200 2020-05-26 07:00:00 PTTK1
07145200 SF NINNESCAH R NR MURDOCK, KS 8 4.31 207 28,700 2020-05-26 07:00:00 MDKK1
07145500 NINNESCAH R NR PECK, KS 17 4.09 680 70,000 2020-05-26 07:00:00 PECK1
07145600 ARKANSAS R ON HWY 160 AT OXFORD, KS 17 9.96 2,860 36,400 2020-05-26 07:45:00 OXFK1
07145700 SLATE C AT WELLINGTON, KS 19 4.16 25.0 28,500 2020-05-26 07:00:00 WELK1
07146500 ARKANSAS R AT ARKANSAS CITY, KS 11 5.86 3,610 103,000 2020-05-26 07:00:00 ARCK1
07146800 WB WALNUT R NR EL DORADO, KS 21 8.29 431 6,470 2020-05-26 07:00:00 EDWK1
07147070 WHITEWATER R AT TOWANDA, KS   5.49 915 80,600 2020-05-26 07:30:00 TOWK1
07147190 WHITEWATER R AT AUGUSTA, KS 21 5.68

 

  2020-05-26 07:15:00 AGSK1
07147800 WALNUT R AT WINFIELD, KS 18 6.32 3,490 105,000 2020-05-26 07:00:00 WFDK1
07147900 WALNUT R AT ARKANSAS CITY, KS 18 7.17

 

  2020-05-26 07:15:00 ARKK1
07148111 GROUSE C NR SILVERDALE, KS   5.68 345 23,200 2020-05-26 07:30:00  
07149000 MEDICINE LODGE R NR KIOWA, KS 10 0.57 152 16,000 2020-05-26 07:30:00 KIOK1
07151500 CHIKASKIA R NR CORBIN, KS 10 2.44 211 60,000 2020-05-26 07:30:00 CBNK1
07156900 Cimarron River near Forgan, OK 5 2.19 16.2 69,000 2020-05-26 07:00:00 FRGO2
07157500 CROOKED C NR ENGLEWOOD, KS 6.5 2.34 5.81 13,600 2020-05-26 07:30:00 ENWK1
07157740 CIMARRON R NR BUTTERMILK, KS   7.82 40.4 5,740 2020-05-26 07:30:00  
07157940 BLUFF C NR BUTTERMILK, KS   5.89 28.8 7,030 2020-05-26 07:00:00  
07165750 VERDIGRIS R NR VIRGIL, KS   9.75 632 11,600 2020-05-26 07:00:00  
07166500 VERDIGRIS R NR ALTOONA, KS 19 8.37 3,150 71,000 2020-05-26 07:45:00 ATOK1
07167500 OTTER C AT CLIMAX, KS   3.26 239 107,000 2020-05-26 07:15:00  
07169500 FALL R AT FREDONIA, KS 17 9.94 3,500 77,800 2020-05-26 07:00:00 FRNK1
07169800 ELK R AT ELK FALLS, KS 21 4.55 425 200,000 2020-05-26 07:00:00 ELFK1
07170500 VERDIGRIS R AT INDEPENDENCE, KS 30 20.47 13,600 169,000 2020-05-26 07:00:00 IDPK1
07170700 BIG HILL C NR CHERRYVALE, KS   5.36

 

36,000 2020-05-26 07:00:00  
07170990 VERDIGRIS R AT COFFEYVILLE, KS   16.48 16,100 185,000 2020-05-26 07:45:00  
07172000 CANEY R NR ELGIN, KS   3.18 888 104,000 2020-05-26 07:00:00  
07179300 NEOSHO R NR PARKERVILLE, KS   9.14 164 5,880 2020-05-26 07:45:00  
07179500 NEOSHO R AT COUNCIL GROVE, KS   9.57 361 121,000 2020-05-26 07:00:00  
07179700 ROCK C NR DUNLAP, KS   16.05 917 6,900 2020-05-26 07:15:00  
07179710 NEOSHO R NR DUNLAP, KS   14.63

 

  2020-05-26 07:00:00  
07179730 NEOSHO R NR AMERICUS, KS 26 6.47 734 17,400 2020-05-26 07:15:00 AMCK1
07179750 NEOSHO R AT BURLINGAME RD NR EMPORIA, KS   6.10 903 14,300 2020-05-26 07:30:00  
07179785 NF COTTONWOOD R NR DURHAM, KS   14.98 581   2020-05-26 07:30:00  
07179795 N COTTONWOOD R BL MARION LK, KS   4.63 9.18 5,070 2020-05-26 07:30:00  
07180200 COTTONWOOD R AT MARION, KS   6.36

 

29,100 2020-05-26 07:30:00  
07180400 COTTONWOOD R NR FLORENCE, KS 22 4.42 693 73,700 2020-05-26 07:15:00 FLRK1
07180500 CEDAR C NR CEDAR POINT, KS   6.05 445 52,400 2020-05-26 07:15:00  
07182000 COTTONWOOD R AT COTTONWOOD FALLS, KS   11.14 738 196,000 2020-05-26 07:00:00 CTWK1
07182200 SF COTTONWOOD R NR BAZAAR, KS   8.88 212 25,100 2020-05-26 07:30:00  
07182250 COTTONWOOD R NR PLYMOUTH, KS 32 7.74 1,140 92,900 2020-05-26 07:00:00 PLYK1
07182260 COTTONWOOD R AT EMPORIA, KS 20 6.31 1,640 18,700 2020-05-26 07:30:00 EMPK1
07182390 NEOSHO R AT NEOSHO RAPIDS, KS 22 7.84 2,260 26,500 2020-05-26 07:30:00 NEOK1
07182395 NEOSHO R AT HARTFORD, KS   6.50

 

  2020-05-26 07:30:00  
07182510 NEOSHO R AT BURLINGTON, KS 27 5.91 102 26,200 2020-05-26 07:15:00 BRLK1
07183000 NEOSHO R NR IOLA, KS 15 7.60 896 436,000 2020-05-26 07:30:00 IOLK1
07183300 NEOSHO R NR ERIE, KS 29.13 14.39

 

  2020-05-26 07:15:00 EREK1
07183500 NEOSHO R NR PARSONS, KS 21 12.84 7,820 410,000 2020-05-26 07:00:00 PPFK1
07184000 LIGHTNING C NR MCCUNE, KS 12 12.44 2,890 67,500 2020-05-26 07:45:00 MCNK1
07184500 LABETTE C NR OSWEGO, KS   17.63 4,490 30,000 2020-05-26 07:00:00  
07187600 SPRING R NR BAXTER SPRINGS, KS 14 9.36 18,800 146,000 2020-05-26 07:30:00 BXTK1
375350097262800 L ARKANSAS R UPSTREAM OF ASR FAC NR SEDGWICK, KS   8.19

 

  2020-05-26 07:30:00